Time;durP1;ratioP1;P1;durP2;ratioP2;P2;SDS_P1;SDS_P2;PMS_P1;PMS_P2;Temp;Humidity;BMP_temperature;BMP_pressure;BME280_temperature;BME280_humidity;BME280_pressure;Samples;Min_cycle;Max_cycle;Signal;HPM_P1;HPM_P2
2020/12/19 00:02:47;;;;;;;59.10;29.90;;;;;;;0.79;78.99;101296.98;2253139;78;29349;-62
2020/12/19 00:05:49;;;;;;;59.45;28.75;;;;;;;0.81;78.81;101292.61;2275249;78;31135;-63
2020/12/19 00:08:52;;;;;;;54.58;28.00;;;;;;;0.84;78.76;101288.64;2275219;78;33084;-63
2020/12/19 00:11:55;;;;;;;59.85;30.32;;;;;;;0.85;78.96;101288.67;2238573;78;28850;-63
2020/12/19 00:14:57;;;;;;;69.87;32.78;;;;;;;0.87;78.78;101286.03;2261850;76;27688;-60
2020/12/19 00:17:59;;;;;;;70.45;34.95;;;;;;;0.89;78.71;101290.47;2254694;78;28777;-60
2020/12/19 00:21:02;;;;;;;60.40;29.35;;;;;;;0.93;78.67;101291.36;2261027;77;31293;-63
2020/12/19 00:24:07;;;;;;;63.70;32.30;;;;;;;0.94;78.81;101285.21;2262860;78;33115;-62
2020/12/19 00:27:10;;;;;;;60.48;30.32;;;;;;;0.95;78.73;101286.98;2268251;78;28942;-62
2020/12/19 00:30:13;;;;;;;60.10;30.95;;;;;;;1.00;78.64;101293.14;2303328;77;27658;-63
2020/12/19 00:33:15;;;;;;;55.58;27.87;;;;;;;1.11;78.73;101297.16;2285836;77;29683;-63
2020/12/19 00:36:18;;;;;;;62.70;32.13;;;;;;;1.16;78.83;101293.26;2263101;78;32095;-63
2020/12/19 00:39:20;;;;;;;59.35;29.85;;;;;;;1.21;78.68;101295.47;2274764;78;33134;-62
2020/12/19 00:42:22;;;;;;;62.98;29.27;;;;;;;1.24;78.67;101290.66;2270970;78;28842;-64
2020/12/19 00:45:24;;;;;;;72.75;30.32;;;;;;;1.26;78.61;101292.84;2272157;78;27664;-64
2020/12/19 00:48:26;;;;;;;63.50;29.87;;;;;;;1.25;78.59;101293.29;2296196;77;29211;-61
2020/12/19 00:51:30;;;;;;;67.55;30.10;;;;;;;1.27;78.64;101291.97;2256795;77;31381;-62
2020/12/19 00:54:39;;;;;;;59.25;27.45;;;;;;;1.24;78.69;101295.94;2243692;78;33977;-62
2020/12/19 00:57:42;;;;;;;58.10;28.83;;;;;;;1.24;78.81;101304.72;2200902;79;29418;-62
2020/12/19 01:00:45;;;;;;;62.58;30.77;;;;;;;1.29;78.75;101304.73;2201535;79;27742;-62
2020/12/19 01:03:49;;;;;;;62.20;31.82;;;;;;;1.33;78.74;101294.20;2222653;79;28808;-62
2020/12/19 01:06:52;;;;;;;66.90;32.88;;;;;;;1.41;78.75;101286.76;2220985;80;31183;-62
2020/12/19 01:13:10;;;;;;;57.47;27.90;;;;;;;1.53;78.63;101294.72;2227726;79;27762;-61
2020/12/19 01:16:23;;;;;;;62.65;30.82;;;;;;;1.49;78.78;101289.01;2182599;80;27766;-61
2020/12/19 01:19:25;;;;;;;65.97;29.57;;;;;;;1.41;78.70;101287.63;2196172;79;28822;-63
2020/12/19 01:22:27;;;;;;;54.15;26.93;;;;;;;1.38;78.60;101285.00;2227405;79;31327;-62
2020/12/19 01:25:30;;;;;;;63.30;29.75;;;;;;;1.33;78.61;101286.73;2228388;79;33089;-62
2020/12/19 01:28:32;;;;;;;54.60;25.50;;;;;;;1.29;78.52;101285.84;2228503;79;28754;-62
2020/12/19 01:31:34;;;;;;;51.85;26.97;;;;;;;1.32;78.78;101287.60;2206150;79;27692;-62
2020/12/19 01:34:36;;;;;;;52.43;25.35;;;;;;;1.26;78.71;101287.14;2227359;79;29323;-63
2020/12/19 01:37:38;;;;;;;42.43;20.70;;;;;;;1.26;78.83;101280.96;2228553;79;30413;-66
2020/12/19 01:40:51;;;;;;;55.17;27.10;;;;;;;1.25;78.98;101269.53;2218549;79;34449;-62
2020/12/19 01:43:58;;;;;;;46.05;22.25;;;;;;;1.19;79.04;101262.90;2217335;79;29012;-66
2020/12/19 01:47:02;;;;;;;56.45;27.70;;;;;;;1.17;79.19;101267.28;2228213;79;27708;-64
2020/12/19 01:50:07;;;;;;;50.73;24.02;;;;;;;1.11;79.12;101260.22;2226893;79;28828;-65
2020/12/19 01:53:10;;;;;;;49.40;24.37;;;;;;;1.10;79.32;101261.09;2189863;79;32107;-64
2020/12/19 01:56:12;;;;;;;56.88;27.70;;;;;;;1.10;79.37;101255.81;2189351;81;33217;-66
2020/12/19 01:59:16;;;;;;;55.12;28.25;;;;;;;1.11;79.31;101248.80;2189126;81;29153;-64
2020/12/19 02:02:22;;;;;;;47.53;22.40;;;;;;;1.12;79.46;101245.29;2221356;79;28131;-62
2020/12/19 02:05:25;;;;;;;58.40;28.12;;;;;;;1.12;79.62;101249.25;2228670;79;28919;-62
2020/12/19 02:08:27;;;;;;;52.93;25.55;;;;;;;1.09;79.62;101241.31;2228440;79;31077;-62
2020/12/19 02:11:29;;;;;;;51.73;26.25;;;;;;;1.13;79.87;101249.23;2205022;79;33076;-65
2020/12/19 02:14:32;;;;;;;50.75;26.17;;;;;;;1.17;79.57;101246.17;2212610;80;28862;-62
2020/12/19 02:17:34;;;;;;;48.05;24.70;;;;;;;1.21;79.51;101249.27;2218191;80;27663;-65
2020/12/19 02:20:37;;;;;;;50.90;26.42;;;;;;;1.24;79.63;101242.70;2208682;80;27766;-63
2020/12/19 02:23:40;;;;;;;48.55;25.08;;;;;;;1.25;79.53;101243.14;2182904;80;32117;-64
2020/12/19 02:26:48;;;;;;;48.65;25.52;;;;;;;1.30;79.63;101241.83;2168804;81;33093;-62
2020/12/19 02:29:50;;;;;;;50.35;26.65;;;;;;;1.29;79.53;101237.01;2168830;80;28865;-64
2020/12/19 02:32:52;;;;;;;42.95;22.70;;;;;;;1.34;79.51;101236.56;2193095;80;27672;-64
2020/12/19 02:35:54;;;;;;;55.30;27.32;;;;;;;1.39;79.68;101235.70;2217282;80;28982;-62
2020/12/19 02:38:57;;;;;;;46.45;23.92;;;;;;;1.41;79.59;101231.31;2217456;80;31288;-62
2020/12/19 02:41:59;;;;;;;37.30;18.77;;;;;;;1.41;79.44;101215.47;2190731;80;33892;-64
2020/12/19 02:45:01;;;;;;;42.73;22.62;;;;;;;1.41;79.70;101211.06;2178403;81;29808;-64
2020/12/19 02:48:03;;;;;;;46.28;23.87;;;;;;;1.36;79.77;101208.41;2178443;81;28105;-63
2020/12/19 02:51:06;;;;;;;36.95;18.62;;;;;;;1.30;79.78;101198.28;2190312;80;29050;-63
2020/12/19 02:54:08;;;;;;;43.02;22.80;;;;;;;1.29;79.93;101207.07;2216816;80;31148;-62
2020/12/19 02:57:10;;;;;;;41.65;20.45;;;;;;;1.25;79.85;101206.19;2217218;80;33144;-62
2020/12/19 03:00:12;;;;;;;41.23;21.35;;;;;;;1.28;79.80;101200.92;2193282;79;28714;-62
2020/12/19 03:03:14;;;;;;;40.00;22.73;;;;;;;1.33;79.80;101195.66;2178540;81;28110;-62
2020/12/19 03:06:16;;;;;;;37.13;19.85;;;;;;;1.38;79.68;101187.31;2178808;81;28824;-62
2020/12/19 03:09:20;;;;;;;36.70;20.62;;;;;;;1.44;79.63;101190.41;2178680;81;31147;-62
2020/12/19 03:12:22;;;;;;;37.85;19.75;;;;;;;1.46;79.54;101184.23;2199763;79;33126;-62
2020/12/19 03:15:24;;;;;;;40.50;21.07;;;;;;;1.47;79.44;101178.54;2168162;82;28924;-62
2020/12/19 03:18:27;;;;;;;37.23;19.70;;;;;;;1.46;79.36;101186.02;2168137;81;27613;-61
2020/12/19 03:21:29;;;;;;;34.70;20.00;;;;;;;1.43;79.37;101180.72;2177637;80;28013;-62
2020/12/19 03:24:31;;;;;;;33.92;19.17;;;;;;;1.38;79.20;101178.08;2217168;80;31108;-62
2020/12/19 03:27:34;;;;;;;35.30;19.10;;;;;;;1.33;79.16;101174.53;2216221;80;33586;-62
2020/12/19 03:30:36;;;;;;;36.88;20.62;;;;;;;1.27;79.13;101169.23;2211117;80;29280;-63
2020/12/19 03:33:38;;;;;;;34.13;19.35;;;;;;;1.21;79.06;101161.75;2194870;80;27637;-62
2020/12/19 03:36:41;;;;;;;37.10;18.55;;;;;;;1.16;79.10;101163.94;2178330;81;28821;-62
2020/12/19 03:39:43;;;;;;;32.50;17.77;;;;;;;1.11;79.08;101162.58;2178320;81;32122;-63
2020/12/19 03:42:45;;;;;;;30.55;17.65;;;;;;;1.09;79.02;101155.55;2203149;80;33044;-62
2020/12/19 03:45:47;;;;;;;30.05;16.35;;;;;;;1.07;79.09;101155.55;2178336;81;29218;-63
2020/12/19 03:48:49;;;;;;;32.95;17.62;;;;;;;1.03;79.12;101161.23;2178463;81;27690;-63
2020/12/19 03:51:52;;;;;;;32.83;17.12;;;;;;;1.00;79.05;101159.03;2180442;80;30187;-62
2020/12/19 03:54:54;;;;;;;30.95;15.98;;;;;;;0.97;79.02;101155.06;2179455;80;31176;-63
2020/12/19 03:57:56;;;;;;;37.13;19.70;;;;;;;0.96;79.06;101166.48;2216578;80;34028;-62
2020/12/19 04:00:59;;;;;;;29.60;16.25;;;;;;;0.93;79.11;101162.51;2215950;80;28870;-63
2020/12/19 04:04:01;;;;;;;33.25;17.67;;;;;;;0.89;79.05;101155.03;2217151;80;27633;-62
2020/12/19 04:07:04;;;;;;;36.05;19.57;;;;;;;0.83;79.02;101151.94;2213008;80;28816;-63
2020/12/19 04:10:08;;;;;;;31.35;18.00;;;;;;;0.81;79.08;101164.23;2179679;80;32031;-62
2020/12/19 04:13:10;;;;;;;29.40;16.37;;;;;;;0.80;79.00;101162.91;2176238;81;33201;-63
2020/12/19 04:16:13;;;;;;;30.17;16.90;;;;;;;0.81;79.01;101156.77;2171419;81;28900;-62
2020/12/19 04:19:16;;;;;;;34.05;18.87;;;;;;;0.81;78.94;101160.73;2186581;80;27729;-62
2020/12/19 04:22:18;;;;;;;32.05;17.10;;;;;;;0.78;78.87;101156.30;2215335;80;28840;-62
2020/12/19 04:25:20;;;;;;;31.12;17.15;;;;;;;0.74;78.87;101160.69;2215456;80;31343;-62
2020/12/19 04:28:23;;;;;;;35.83;17.95;;;;;;;0.73;78.87;101164.20;2196687;80;34020;-62
2020/12/19 04:31:25;;;;;;;37.63;20.75;;;;;;;0.67;78.81;101158.87;2210704;80;28836;-62
2020/12/19 04:34:27;;;;;;;37.45;19.95;;;;;;;0.66;78.88;101157.14;2215146;80;27784;-63
2020/12/19 04:37:30;;;;;;;40.10;21.62;;;;;;;0.66;78.90;101161.52;2214603;80;29786;-62
2020/12/19 04:40:32;;;;;;;32.63;15.43;;;;;;;0.63;78.83;101158.44;2214741;80;32092;-62
2020/12/19 04:43:34;;;;;;;35.38;18.05;;;;;;;0.62;78.91;101161.05;2185139;80;34436;-62
2020/12/19 04:46:41;;;;;;;51.65;24.70;;;;;;;0.57;78.75;101159.30;2215413;80;30186;-62
2020/12/19 04:49:45;;;;;;;37.78;19.35;;;;;;;0.56;78.70;101153.58;2213573;80;27641;-62
2020/12/19 04:52:47;;;;;;;32.93;16.97;;;;;;;0.53;78.71;101150.02;2215344;80;28821;-63
2020/12/19 04:55:50;;;;;;;30.68;17.30;;;;;;;0.50;78.79;101152.20;2215624;80;31146;-64
2020/12/19 04:58:58;;;;;;;35.52;18.80;;;;;;;0.49;78.81;101153.08;2215048;80;33108;-63
2020/12/19 05:02:01;;;;;;;42.70;20.20;;;;;;;0.49;78.74;101153.53;2201180;80;29312;-63
2020/12/19 05:05:06;;;;;;;43.48;19.90;;;;;;;0.44;78.75;101164.92;2215667;80;28228;-63
2020/12/19 05:08:09;;;;;;;37.95;20.02;;;;;;;0.41;78.80;101162.72;2215465;80;29778;-63
2020/12/19 05:11:14;;;;;;;31.60;17.52;;;;;;;0.35;78.69;101158.25;2185740;80;32312;-62
2020/12/19 05:14:16;;;;;;;31.33;16.85;;;;;;;0.34;78.78;101169.67;2170388;81;33001;-64
2020/12/19 05:17:19;;;;;;;33.02;19.00;;;;;;;0.36;78.85;101167.06;2169716;82;28866;-63
2020/12/19 05:20:22;;;;;;;29.85;16.32;;;;;;;0.35;78.79;101167.94;2146932;81;27703;-63
2020/12/19 05:23:25;;;;;;;31.40;17.92;;;;;;;0.35;78.74;101166.62;2187074;81;29266;-62
2020/12/19 05:26:29;;;;;;;32.90;16.75;;;;;;;0.34;78.71;101162.22;2188321;81;32119;-62
2020/12/19 05:29:34;;;;;;;27.47;16.40;;;;;;;0.33;78.74;101164.41;2161111;79;32327;-64
2020/12/19 05:32:50;;;;;;;36.53;17.92;;;;;;;0.30;78.67;101165.27;2163806;81;28912;-62
2020/12/19 05:35:53;;;;;;;33.85;16.42;;;;;;;0.28;78.68;101167.02;2172049;81;27812;-63
2020/12/19 05:39:02;;;;;;;32.30;17.17;;;;;;;0.25;78.67;101163.90;2172829;81;28623;-62
2020/12/19 05:42:04;;;;;;;27.35;15.35;;;;;;;0.24;78.62;101165.22;2189297;81;31189;-63
2020/12/19 05:45:18;;;;;;;32.85;16.97;;;;;;;0.24;78.63;101162.16;2192535;81;34044;-63
2020/12/19 05:48:20;;;;;;;32.00;17.15;;;;;;;0.21;78.59;101162.14;2192754;81;30148;-62
2020/12/19 05:51:24;;;;;;;29.85;16.45;;;;;;;0.19;78.57;101159.02;2138384;82;27661;-63
2020/12/19 05:54:28;;;;;;;33.00;17.65;;;;;;;0.20;78.65;101166.06;2192683;81;28823;-63
2020/12/19 05:57:33;;;;;;;34.03;17.48;;;;;;;0.20;78.64;101163.42;2164230;81;30336;-62
2020/12/19 06:00:35;;;;;;;30.68;16.82;;;;;;;0.16;78.59;101165.62;2177186;81;35562;-64
2020/12/19 06:03:38;;;;;;;31.62;17.10;;;;;;;0.12;78.64;101157.69;2189885;81;28931;-63
2020/12/19 06:06:46;;;;;;;30.57;16.10;;;;;;;0.09;78.61;101161.61;2195398;81;27843;-62
2020/12/19 06:09:48;;;;;;;32.73;17.10;;;;;;;0.06;78.68;101161.58;2176818;81;28833;-62
2020/12/19 06:13:13;;;;;;;31.55;16.02;;;;;;;0.04;78.66;101162.00;2151951;81;31235;-62
2020/12/19 06:16:17;;;;;;;30.45;15.23;;;;;;;0.03;78.78;101162.00;2100637;84;33623;-62
2020/12/19 06:19:23;;;;;;;26.90;13.60;;;;;;;0.00;78.77;101157.60;2100797;83;29166;-64
2020/12/19 06:22:29;;;;;;;31.70;15.98;;;;;;;-0.01;78.85;101156.70;2144977;81;27792;-62
2020/12/19 06:25:46;;;;;;;26.20;14.65;;;;;;;0.02;78.87;101162.41;2100252;84;29219;-63
2020/12/19 06:28:50;;;;;;;26.87;14.78;;;;;;;-0.02;78.92;101162.84;2031595;87;31179;-62
2020/12/19 06:32:01;;;;;;;27.00;14.20;;;;;;;-0.04;78.98;101174.24;2046541;86;33107;-63
2020/12/19 06:35:11;;;;;;;23.65;13.00;;;;;;;-0.05;79.05;101172.03;2088267;85;30107;-64
2020/12/19 06:38:13;;;;;;;29.10;14.20;;;;;;;-0.02;79.12;101172.05;2089532;85;27780;-63
2020/12/19 06:41:43;;;;;;;23.42;11.90;;;;;;;-0.02;79.13;101176.45;2087979;85;28925;-63
2020/12/19 06:44:45;;;;;;;22.62;12.15;;;;;;;-0.04;79.42;101174.24;2089367;85;31154;-62
2020/12/19 06:47:48;;;;;;;29.23;12.73;;;;;;;-0.05;79.36;101172.03;2089560;85;34129;-62
2020/12/19 06:51:03;;;;;;;19.85;11.18;;;;;;;-0.03;79.35;101169.42;2067836;85;29169;-62
2020/12/19 06:54:40;;;;;;;23.53;13.70;;;;;;;0.02;79.40;101167.69;2297408;77;28348;-61
2020/12/19 06:57:52;;;;;;;24.60;12.98;;;;;;;-0.03;79.25;101167.66;2252531;78;27627;-61
2020/12/19 07:00:55;;;;;;;26.27;14.75;;;;;;;-0.01;79.27;101165.05;2230487;78;28736;-60
2020/12/19 07:03:58;;;;;;;26.70;14.05;;;;;;;0.01;79.24;101172.95;2253636;77;31191;-61
2020/12/19 07:07:06;;;;;;;25.92;13.98;;;;;;;-0.01;79.25;101164.61;2178948;80;33120;-62
2020/12/19 07:10:08;;;;;;;25.85;14.83;;;;;;;-0.03;79.13;101160.20;2202374;78;30206;-62
2020/12/19 07:13:11;;;;;;;24.82;13.55;;;;;;;-0.04;79.20;101172.92;2200710;80;27847;-62
2020/12/19 07:16:14;;;;;;;25.55;14.43;;;;;;;-0.05;79.21;101166.76;2194277;80;29804;-63
2020/12/19 07:19:29;;;;;;;25.95;15.60;;;;;;;-0.06;79.26;101173.34;2195326;80;32818;-62
2020/12/19 07:22:31;;;;;;;36.42;20.97;;;;;;;-0.04;79.30;101180.83;2189456;80;34211;-62
2020/12/19 07:25:34;;;;;;;33.67;16.93;;;;;;;-0.03;79.36;101174.23;2197397;80;28858;-63
2020/12/19 07:28:38;;;;;;;27.30;13.38;;;;;;;0.04;79.39;101176.94;2192969;80;27759;-62
2020/12/19 07:31:44;;;;;;;24.98;15.18;;;;;;;0.08;79.44;101180.92;2198409;80;29713;-63
2020/12/19 07:35:07;;;;;;;31.00;15.53;;;;;;;0.13;79.49;101186.22;2212592;80;32036;-62
2020/12/19 07:38:10;;;;;;;25.48;14.78;;;;;;;0.20;79.55;101188.46;2075086;84;35477;-62
2020/12/19 07:41:12;;;;;;;25.45;13.83;;;;;;;0.29;79.60;101179.32;2133262;82;28863;-62
2020/12/19 07:44:17;;;;;;;25.50;14.07;;;;;;;0.33;79.55;101177.58;2059235;84;27779;-61
2020/12/19 07:47:19;;;;;;;;;;;;;;;0.41;79.56;101174.58;2085533;84;29532;-62
2020/12/19 07:50:26;;;;;;;23.92;12.55;;;;;;;0.49;79.53;101164.94;2096102;84;31710;-61
2020/12/19 07:53:28;;;;;;;20.82;11.65;;;;;;;0.58;79.61;101167.62;2095678;84;32909;-61
2020/12/19 07:56:31;;;;;;;20.80;11.48;;;;;;;0.66;79.45;101165.47;2094474;84;29788;-62
2020/12/19 07:59:36;;;;;;;21.85;11.25;;;;;;;0.77;79.40;101164.22;2084416;84;27761;-62
2020/12/19 08:02:39;;;;;;;22.45;12.50;;;;;;;0.89;79.34;101162.95;2057727;84;28858;-63
2020/12/19 08:05:41;;;;;;;21.80;12.03;;;;;;;0.96;79.22;101161.20;2077109;84;31164;-65
2020/12/19 08:08:49;;;;;;;20.10;11.88;;;;;;;0.98;79.16;101162.10;2102640;84;33706;-61
2020/12/19 08:12:02;;;;;;;15.73;10.47;;;;;;;1.07;79.24;101170.06;2246103;78;34904;-62
2020/12/19 08:15:09;;;;;;;20.77;12.43;;;;;;;1.10;79.26;101167.87;2189467;81;27761;-63
2020/12/19 08:18:13;;;;;;;29.82;12.60;;;;;;;1.11;79.16;101162.58;2189085;79;28919;-63
2020/12/19 08:21:16;;;;;;;21.33;12.95;;;;;;;1.15;79.22;101163.50;2226005;79;31269;-61
2020/12/19 08:27:55;;;;;;;27.58;14.30;;;;;;;1.24;79.27;101162.19;2137000;83;27689;-62
2020/12/19 08:30:58;;;;;;;26.87;13.45;;;;;;;1.34;79.25;101168.38;2134892;83;27812;-62
2020/12/19 08:34:13;;;;;;;23.83;14.10;;;;;;;1.45;79.35;101166.63;2118677;83;28935;-64
2020/12/19 08:37:19;;;;;;;20.12;12.68;;;;;;;1.56;79.39;101160.52;2091227;85;30580;-63
2020/12/19 08:40:21;;;;;;;21.37;13.32;;;;;;;1.66;79.18;101164.46;2115803;83;33123;-64
2020/12/19 08:43:36;;;;;;;20.52;11.97;;;;;;;1.75;79.24;101164.05;2136708;81;29745;-64
2020/12/19 08:47:04;;;;;;;20.50;13.00;;;;;;;1.90;79.11;101157.44;2251952;77;27700;-62
2020/12/19 08:50:06;;;;;;;21.17;13.50;;;;;;;1.91;78.96;101160.53;2216798;80;27639;-64
2020/12/19 08:53:24;;;;;;;22.52;12.73;;;;;;;1.99;78.95;101159.20;2217572;80;28824;-62
2020/12/19 08:56:26;;;;;;;24.25;14.28;;;;;;;2.06;78.91;101163.63;2197632;80;32148;-62
2020/12/19 08:59:29;;;;;;;26.95;15.58;;;;;;;2.14;78.95;101163.61;2184051;80;33943;-65
2020/12/19 09:02:31;;;;;;;28.30;16.45;;;;;;;2.19;78.81;101165.79;2198018;80;28540;-63
2020/12/19 09:08:56;;;;;;;25.27;15.87;;;;;;;2.45;78.86;101163.56;2248456;78;27712;-62
2020/12/19 09:12:09;;;;;;;27.13;14.85;;;;;;;2.45;78.58;101162.66;2227711;79;27631;-63
2020/12/19 09:15:19;;;;;;;16.85;9.88;;;;;;;2.47;78.46;101151.65;2228714;79;27625;-63
2020/12/19 09:18:25;;;;;;;24.35;14.03;;;;;;;2.50;78.49;101144.58;2228411;79;31175;-63
2020/12/19 09:21:27;;;;;;;26.35;14.53;;;;;;;2.61;78.62;101148.52;2211521;79;34246;-63
2020/12/19 09:24:29;;;;;;;22.95;13.48;;;;;;;2.69;78.47;101146.75;2248188;78;28534;-67
2020/12/19 09:27:31;;;;;;;25.17;15.25;;;;;;;2.76;78.37;101140.98;2275814;78;28150;-64
2020/12/19 09:30:34;;;;;;;28.35;17.62;;;;;;;2.82;78.30;101135.65;2220305;78;29037;-67
2020/12/19 09:33:39;;;;;;;25.25;16.12;;;;;;;2.88;78.30;101138.74;2214590;79;31139;-63
2020/12/19 09:36:41;;;;;;;26.10;16.27;;;;;;;2.91;78.08;101121.96;2210354;78;33979;-63
2020/12/19 09:39:44;;;;;;;25.27;16.27;;;;;;;2.97;78.16;101129.88;2224753;78;28839;-63
2020/12/19 09:42:47;;;;;;;29.65;16.42;;;;;;;3.01;78.09;101128.95;2223950;78;27746;-63
2020/12/19 09:45:49;;;;;;;23.22;14.63;;;;;;;3.08;78.04;101127.16;2224268;79;29597;-63
2020/12/19 09:48:51;;;;;;;21.15;13.72;;;;;;;3.14;78.01;101120.09;2216407;78;31160;-65
2020/12/19 09:51:54;;;;;;;24.70;16.52;;;;;;;3.24;77.84;101120.02;2221151;78;33119;-63
2020/12/19 09:54:56;;;;;;;26.07;16.52;;;;;;;3.27;77.70;101119.55;2223349;78;29520;-62
2020/12/19 09:57:59;;;;;;;28.27;18.92;;;;;;;3.33;77.76;101117.30;2222495;79;27803;-63
2020/12/19 10:01:02;;;;;;;24.40;14.73;;;;;;;3.37;77.74;101126.99;2220143;79;28893;-62
2020/12/19 10:04:04;;;;;;;29.02;15.72;;;;;;;3.41;77.21;101132.71;2223398;79;31179;-63
2020/12/19 10:07:07;;;;;;;23.85;15.35;;;;;;;3.42;77.43;101122.98;2214051;78;33122;-62
2020/12/19 10:10:10;;;;;;;30.55;19.05;;;;;;;3.48;77.25;101117.66;2212904;80;29144;-63
2020/12/19 10:13:14;;;;;;;37.58;24.20;;;;;;;3.54;77.36;101112.75;2210050;80;27942;-63
2020/12/19 10:16:16;;;;;;;24.32;17.30;;;;;;;3.62;77.48;101117.10;2214693;80;28748;-62
2020/12/19 10:19:20;;;;;;;27.55;17.77;;;;;;;3.69;76.99;101111.77;2204205;80;32036;-63
2020/12/19 10:22:23;;;;;;;29.27;17.92;;;;;;;3.70;77.02;101109.09;2193332;80;32821;-63
2020/12/19 10:25:28;;;;;;;26.02;16.57;;;;;;;3.76;77.02;101109.48;2197378;80;28843;-63
2020/12/19 10:28:30;;;;;;;32.33;18.45;;;;;;;3.78;76.81;101111.25;2189840;80;28377;-62
2020/12/19 10:31:32;;;;;;;32.80;19.17;;;;;;;3.83;76.77;101109.88;2206384;80;28868;-63
2020/12/19 10:34:35;;;;;;;24.80;15.85;;;;;;;3.90;76.99;101112.03;2212473;80;31600;-69
2020/12/19 10:37:38;;;;;;;27.27;16.73;;;;;;;3.97;76.76;101104.89;2207761;80;33909;-66
2020/12/19 10:40:40;;;;;;;29.42;17.95;;;;;;;4.05;76.76;101101.28;2205962;80;28869;-62
2020/12/19 10:43:43;;;;;;;30.25;17.55;;;;;;;4.08;76.17;101101.68;2186910;80;27682;-63
2020/12/19 10:46:46;;;;;;;31.68;17.52;;;;;;;4.10;76.04;101098.58;2205406;80;28808;-61
2020/12/19 10:49:51;;;;;;;32.35;18.98;;;;;;;4.13;76.23;101092.38;2198072;80;31126;-61
2020/12/19 10:52:53;;;;;;;34.40;22.98;;;;;;;4.19;76.34;101090.97;2202531;80;33193;-62
2020/12/19 10:55:56;;;;;;;31.30;20.65;;;;;;;4.25;76.07;101085.61;2204360;80;29540;-62
2020/12/19 10:58:59;;;;;;;79.90;47.65;;;;;;;4.28;76.13;101088.23;2201218;80;28218;-61
2020/12/19 11:02:02;;;;;;;32.85;19.35;;;;;;;4.33;76.25;101081.09;2212373;80;29227;-62
2020/12/19 11:05:04;;;;;;;26.07;15.93;;;;;;;4.40;76.14;101082.79;2210426;80;31420;-62
2020/12/19 11:08:08;;;;;;;37.83;23.02;;;;;;;4.50;75.98;101084.89;2193226;80;33110;-61
2020/12/19 11:11:11;;;;;;;48.50;26.27;;;;;;;4.56;75.91;101072.86;2205212;80;28914;-63
2020/12/19 11:14:13;;;;;;;42.10;26.07;;;;;;;4.64;75.92;101076.74;2192756;80;27795;-61
2020/12/19 11:17:15;;;;;;;25.72;16.82;;;;;;;4.72;75.76;101073.98;2178385;80;29239;-61
2020/12/19 11:20:18;;;;;;;23.98;16.97;;;;;;;4.78;75.58;101077.91;2178179;81;31556;-60
2020/12/19 11:23:20;;;;;;;25.60;15.45;;;;;;;4.82;75.56;101074.32;2177903;81;33499;-60
2020/12/19 11:26:22;;;;;;;22.15;15.20;;;;;;;4.86;75.30;101073.39;2177505;81;28756;-60
2020/12/19 11:29:24;;;;;;;23.20;17.00;;;;;;;4.89;75.33;101071.13;2178263;80;27640;-60
2020/12/19 11:32:27;;;;;;;69.12;47.85;;;;;;;4.94;75.18;101060.01;2178624;80;29112;-60
2020/12/19 11:35:29;;;;;;;27.27;19.15;;;;;;;4.99;75.15;101062.59;2186846;80;32478;-61
2020/12/19 11:38:31;;;;;;;20.82;13.93;;;;;;;5.11;75.25;101060.21;2216765;80;33003;-61
2020/12/19 11:41:33;;;;;;;21.40;14.47;;;;;;;5.20;74.74;101058.73;2212092;80;28855;-62
2020/12/19 11:44:36;;;;;;;20.08;13.70;;;;;;;5.24;74.70;101057.80;2178222;81;27733;-61
2020/12/19 11:47:38;;;;;;;23.50;15.45;;;;;;;5.24;74.51;101048.93;2200577;80;28753;-62
2020/12/19 11:50:40;;;;;;;26.05;15.80;;;;;;;5.26;74.48;101043.15;2202264;80;31180;-59
2020/12/19 11:53:43;;;;;;;23.73;16.00;;;;;;;5.26;74.29;101048.02;2181477;80;33822;-61
2020/12/19 11:56:45;;;;;;;24.20;14.63;;;;;;;5.27;74.24;101048.89;2187870;80;29745;-60
2020/12/19 11:59:48;;;;;;;24.63;16.15;;;;;;;5.22;74.19;101034.36;2192936;80;27975;-60
2020/12/19 12:02:50;;;;;;;112.28;73.28;;;;;;;5.27;73.95;101045.80;2191460;80;28888;-61
2020/12/19 12:05:52;;;;;;;61.95;41.02;;;;;;;5.26;74.01;101045.37;2193920;80;31173;-61
2020/12/19 12:12:09;;;;;;;23.57;15.07;;;;;;;5.28;73.84;101038.69;2234159;77;27696;-60
2020/12/19 12:15:12;;;;;;;28.12;15.35;;;;;;;5.25;73.68;101041.39;2201298;80;27725;-62
2020/12/19 12:18:14;;;;;;;23.77;15.50;;;;;;;5.26;73.80;101033.84;2193559;80;29240;-61
2020/12/19 12:21:17;;;;;;;23.57;15.70;;;;;;;5.27;73.75;101036.94;2195030;80;32274;-59
2020/12/19 12:24:22;;;;;;;29.00;18.25;;;;;;;5.28;73.71;101028.96;2178446;81;34502;-61
2020/12/19 12:27:24;;;;;;;28.32;17.40;;;;;;;5.30;73.72;101029.78;2150737;81;28609;-62
2020/12/19 12:30:26;;;;;;;29.95;20.27;;;;;;;5.32;73.78;101037.75;2155359;81;27723;-61
2020/12/19 12:33:29;;;;;;;36.10;22.55;;;;;;;5.33;73.77;101032.40;2155323;81;28865;-61
2020/12/19 12:36:32;;;;;;;30.72;18.40;;;;;;;5.36;73.81;101031.49;2158108;81;32025;-63
2020/12/19 12:39:35;;;;;;;25.08;15.90;;;;;;;5.35;73.30;101027.52;2152084;81;33558;-64
2020/12/19 12:42:37;;;;;;;28.15;16.35;;;;;;;5.33;73.38;101026.22;2154679;80;29185;-64
2020/12/19 12:45:39;;;;;;;20.17;12.70;;;;;;;5.32;73.32;101027.98;2149703;80;27822;-61
2020/12/19 12:48:42;;;;;;;24.07;14.07;;;;;;;5.31;73.31;101025.36;2145187;81;29756;-61
2020/12/19 12:51:45;;;;;;;19.80;13.65;;;;;;;5.29;73.06;101024.08;2137121;83;31361;-60
2020/12/19 12:54:48;;;;;;;23.22;15.38;;;;;;;5.31;73.13;101025.36;2138837;81;32434;-63
2020/12/19 12:57:50;;;;;;;25.55;16.45;;;;;;;5.33;73.07;101027.55;2147437;81;28846;-59
2020/12/19 13:00:53;;;;;;;26.68;17.45;;;;;;;5.35;73.24;101030.17;2142174;80;27941;-60
2020/12/19 13:03:56;;;;;;;31.33;20.95;;;;;;;5.37;73.25;101029.27;2140191;80;28919;-67
2020/12/19 13:06:59;;;;;;;24.60;16.17;;;;;;;5.40;73.13;101034.50;2139962;82;30341;-63
2020/12/19 13:10:02;;;;;;;24.05;15.98;;;;;;;5.41;73.02;101027.42;2171539;81;33063;-60
2020/12/19 13:13:05;;;;;;;56.73;32.83;;;;;;;5.41;72.99;101031.41;2183339;80;28858;-60
2020/12/19 13:16:07;;;;;;;27.30;17.40;;;;;;;5.40;72.98;101034.97;2107239;82;27712;-61
2020/12/19 13:19:09;;;;;;;28.73;16.62;;;;;;;5.36;72.72;101032.82;2125111;82;28948;-60
2020/12/19 13:22:12;;;;;;;39.58;23.83;;;;;;;5.36;72.89;101031.49;2158280;82;32532;-61
2020/12/19 13:25:14;;;;;;;31.62;19.45;;;;;;;5.36;72.74;101027.51;2157708;82;33641;-63
2020/12/19 13:28:17;;;;;;;39.42;24.20;;;;;;;5.39;72.70;101029.23;2152133;82;30379;-62
2020/12/19 13:31:20;;;;;;;31.55;20.17;;;;;;;5.40;72.60;101033.17;2158160;82;27711;-62
2020/12/19 13:34:22;;;;;;;36.77;25.48;;;;;;;5.40;72.72;101030.98;2158113;82;28824;-62
2020/12/19 13:37:24;;;;;;;27.20;16.73;;;;;;;5.42;72.66;101039.81;2156923;82;31196;-62
2020/12/19 13:40:26;;;;;;;39.03;28.70;;;;;;;5.41;72.51;101041.57;2143241;82;33105;-62
2020/12/19 13:43:29;;;;;;;22.90;15.65;;;;;;;5.39;72.56;101046.03;2130127;82;28858;-62
2020/12/19 13:46:31;;;;;;;20.02;14.07;;;;;;;5.36;72.38;101046.11;2141037;82;27777;-62
2020/12/19 13:49:35;;;;;;;35.73;24.87;;;;;;;5.35;72.43;101043.45;2157149;82;28180;-62
2020/12/19 13:52:39;;;;;;;39.80;24.23;;;;;;;5.31;72.36;101042.64;2144933;82;27770;-62
2020/12/19 13:55:41;;;;;;;23.98;14.93;;;;;;;5.25;72.35;101044.94;2121339;83;33165;-61
2020/12/19 13:58:50;;;;;;;25.52;15.75;;;;;;;5.21;72.31;101051.20;2130811;81;27648;-61
2020/12/19 14:01:53;;;;;;;22.98;14.55;;;;;;;5.19;72.41;101049.01;2135922;82;28198;-61
2020/12/19 14:04:55;;;;;;;26.23;16.00;;;;;;;5.20;72.34;101053.89;2143098;82;28865;-62
2020/12/19 14:07:59;;;;;;;26.05;14.93;;;;;;;5.16;72.39;101044.63;2143113;82;31638;-61
2020/12/19 14:11:02;;;;;;;20.30;11.35;;;;;;;5.15;72.32;101049.52;2130532;82;33142;-62
2020/12/19 14:14:06;;;;;;;26.97;16.17;;;;;;;5.12;72.24;101060.64;2154279;82;28851;-63
2020/12/19 14:17:09;;;;;;;29.35;18.07;;;;;;;5.07;72.30;101058.03;2150140;82;27716;-61
2020/12/19 14:20:12;;;;;;;25.50;16.93;;;;;;;5.02;72.28;101054.59;2151692;82;28835;-61